To NAV CANADA Home Page Login to a new session Search on AWWS site Disclaimer Vers la page française équivalente Tips FAQ What's new on the site To the Forecasts and Observations / NOTAM section To "File a Flight Plan" website Publications and other links Update of the User's profile FIC Telephone Numbers My Weather Data Folder Route Weather Data Regional Weather Data Local Weather Data To the Forecasts and Observations / NOTAM section
Request Generated 11/13/2018 at 19:00:53 UTC . Weather information available at that time is displayed.

METAR/TAF

CAMBRIDGE BAY/NU    

METAR CYCB 131800Z 31007KT 10SM IC FEW061 SCT120 M30/M34 A3031 RMK SC1AC2 SLP272=
METAR CYCB 131700Z 32009KT 10SM IC FEW053 SCT120 M30/M34 A3032 RMK SC2AC1 SLP274=
METAR CYCB 131600Z 31012KT 15SM IC SCT054 BKN120 M29/M33 A3032 RMK SC3AC2 FROIN SLP273=

TAF CYCB 131838Z 1319/1407 30010KT P6SM IC FEW060 SCT120 TEMPO
1319/1407 5SM IC BR
RMK NXT FCST BY 140100Z=
Your time UTC time
Weather data provided by Environment Canada and NAV CANADA